Time;durP1;ratioP1;P1;durP2;ratioP2;P2;SDS_P1;SDS_P2;PMS_P1;PMS_P2;Temp;Humidity;BMP_temperature;BMP_pressure;BME280_temperature;BME280_humidity;BME280_pressure;Samples;Min_cycle;Max_cycle;Signal;HPM_P1;HPM_P2
2022/09/11 00:00:32;;;;;;;7.25;3.35;;;;;;;17.34;100.00;99845.59;2961142;79;20991;-86
2022/09/11 00:04:35;;;;;;;10.35;4.33;;;;;;;17.31;100.00;99840.58;2914948;80;21035;-86
2022/09/11 00:08:39;;;;;;;5.12;3.15;;;;;;;17.31;100.00;99845.95;2892970;80;21038;-86
2022/09/11 00:12:40;;;;;;;7.30;4.28;;;;;;;17.17;100.00;99843.03;2921207;79;21054;-86
2022/09/11 00:16:45;;;;;;;5.30;3.33;;;;;;;17.15;100.00;99841.03;2946380;78;21015;-86
2022/09/11 00:20:51;;;;;;;4.62;3.52;;;;;;;17.18;100.00;99843.84;2960141;78;21916;-86
2022/09/11 00:24:53;;;;;;;4.30;3.45;;;;;;;17.16;100.00;99837.33;2959747;78;21034;-86
2022/09/11 00:28:56;;;;;;;4.20;3.80;;;;;;;17.11;100.00;99839.73;2951339;79;20999;-86
2022/09/11 00:32:58;;;;;;;5.22;3.58;;;;;;;17.02;100.00;99839.44;2954200;80;20999;-86
2022/09/11 00:36:59;;;;;;;7.15;3.60;;;;;;;16.92;100.00;99833.78;2953287;79;20983;-86
2022/09/11 00:41:03;;;;;;;6.50;4.42;;;;;;;16.89;100.00;99835.45;2957269;79;21511;-86
2022/09/11 00:45:07;;;;;;;9.15;4.67;;;;;;;16.87;100.00;99828.09;2955093;79;21087;-86
2022/09/11 00:49:17;;;;;;;4.75;3.55;;;;;;;16.87;100.00;99828.09;2957614;80;22317;-86
2022/09/11 00:53:22;;;;;;;5.60;5.10;;;;;;;16.88;100.00;99825.73;2952758;79;20979;-86
2022/09/11 00:57:28;;;;;;;5.07;4.20;;;;;;;16.93;100.00;99822.52;2935570;80;20998;-86
2022/09/11 01:01:30;;;;;;;3.92;3.60;;;;;;;16.90;100.00;99817.02;2933508;79;21086;-86
2022/09/11 01:05:34;;;;;;;5.05;3.75;;;;;;;16.90;100.00;99823.73;2952991;80;20994;-86
2022/09/11 01:09:36;;;;;;;6.08;4.03;;;;;;;16.92;100.00;99826.22;2955687;80;21023;-86
2022/09/11 01:13:59;;;;;;;7.05;4.33;;;;;;;16.89;100.00;99819.34;2922068;80;21410;-86
2022/09/11 01:18:30;;;;;;;4.22;3.47;;;;;;;16.86;100.00;99826.42;2949302;80;21007;-85
2022/09/11 01:23:14;;;;;;;3.42;2.98;;;;;;;16.69;100.00;99823.83;2954404;79;21168;-85
2022/09/11 01:27:41;;;;;;;4.22;3.42;;;;;;;16.44;100.00;99822.31;2958997;80;22271;-86
2022/09/11 01:31:57;;;;;;;3.95;2.80;;;;;;;16.42;100.00;99819.81;2950792;80;21069;-85
2022/09/11 01:36:09;;;;;;;2.92;2.65;;;;;;;16.31;100.00;99822.39;2950728;80;20994;-86
2022/09/11 01:40:30;;;;;;;4.42;2.90;;;;;;;16.12;100.00;99819.59;2960663;78;21602;-86
2022/09/11 01:44:39;;;;;;;2.95;2.70;;;;;;;16.05;100.00;99827.50;2956941;80;21015;-86
2022/09/11 01:48:44;;;;;;;3.95;2.60;;;;;;;16.07;100.00;99827.34;2952356;78;21439;-86
2022/09/11 01:52:57;;;;;;;3.65;3.10;;;;;;;16.05;100.00;99824.81;2943281;80;21604;-86
2022/09/11 01:57:07;;;;;;;4.00;3.20;;;;;;;16.08;100.00;99823.13;2938297;79;20996;-85
2022/09/11 02:01:26;;;;;;;4.65;2.50;;;;;;;16.18;100.00;99812.19;2957031;79;20971;-86
2022/09/11 02:05:32;;;;;;;7.17;4.10;;;;;;;16.12;100.00;99808.38;2909053;80;21066;-86
2022/09/11 02:09:39;;;;;;;5.47;4.17;;;;;;;16.09;100.00;99806.02;2937925;79;21595;-85
2022/09/11 02:13:58;;;;;;;5.20;4.10;;;;;;;16.07;100.00;99807.22;2953762;79;21452;-86
2022/09/11 02:18:05;;;;;;;4.72;3.90;;;;;;;16.07;100.00;99802.67;2955549;79;21075;-86
2022/09/11 02:22:07;;;;;;;4.92;4.45;;;;;;;16.21;100.00;99794.91;2952866;80;21027;-85
2022/09/11 02:26:11;;;;;;;4.22;2.98;;;;;;;16.35;100.00;99795.52;2953093;80;21050;-85
2022/09/11 02:30:13;;;;;;;4.00;2.77;;;;;;;16.41;100.00;99799.36;2940297;78;21046;-85
2022/09/11 02:34:16;;;;;;;6.40;4.47;;;;;;;16.34;100.00;99808.61;2922303;80;21027;-85
2022/09/11 02:38:23;;;;;;;5.70;3.95;;;;;;;16.39;100.00;99825.02;2946524;80;21034;-85
2022/09/11 02:42:45;;;;;;;5.37;4.87;;;;;;;16.46;100.00;99839.07;2953500;79;21063;-86
2022/09/11 02:47:09;;;;;;;10.15;4.45;;;;;;;16.50;100.00;99833.67;2947271;78;21087;-86
2022/09/11 02:51:31;;;;;;;7.03;4.35;;;;;;;16.52;100.00;99842.42;2977463;79;20962;-85
2022/09/11 02:55:50;;;;;;;7.55;4.90;;;;;;;16.50;100.00;99841.73;2887762;80;21036;-86
2022/09/11 03:00:00;;;;;;;7.40;4.58;;;;;;;16.27;100.00;99842.51;2887420;80;21588;-86
2022/09/11 03:04:02;;;;;;;11.90;5.20;;;;;;;15.88;100.00;99837.91;2890963;81;21056;-86
2022/09/11 03:08:03;;;;;;;7.83;6.20;;;;;;;15.78;100.00;99833.59;2886841;80;21046;-86
2022/09/11 03:12:05;;;;;;;6.15;4.65;;;;;;;15.73;100.00;99838.64;2904962;80;21741;-85
2022/09/11 03:16:07;;;;;;;4.22;3.83;;;;;;;15.61;100.00;99859.57;2859998;82;21447;-85
2022/09/11 03:20:08;;;;;;;3.77;2.98;;;;;;;15.67;100.00;99860.75;2879630;82;21074;-86
2022/09/11 03:24:11;;;;;;;6.35;4.53;;;;;;;15.72;100.00;99857.04;2887395;82;21631;-85
2022/09/11 03:28:13;;;;;;;6.03;3.95;;;;;;;15.78;100.00;99847.00;2890696;81;21616;-85
2022/09/11 03:32:15;;;;;;;5.25;3.77;;;;;;;15.91;100.00;99841.62;2904185;80;21023;-87
2022/09/11 03:36:16;;;;;;;4.37;3.50;;;;;;;15.94;100.00;99834.59;2938949;79;21539;-86
2022/09/11 03:40:19;;;;;;;4.55;4.15;;;;;;;15.99;100.00;99841.61;2947369;80;21034;-86
2022/09/11 03:44:21;;;;;;;6.00;4.20;;;;;;;16.08;100.00;99850.47;2929621;80;21011;-86
2022/09/11 03:48:24;;;;;;;5.47;3.50;;;;;;;16.19;100.00;99846.05;2960805;79;21066;-86
2022/09/11 03:52:25;;;;;;;6.37;3.15;;;;;;;16.31;100.00;99851.91;2928836;79;21032;-86
2022/09/11 03:56:30;;;;;;;3.40;3.10;;;;;;;16.32;100.00;99852.73;2958681;80;21089;-86
2022/09/11 04:00:31;;;;;;;7.28;3.77;;;;;;;16.37;100.00;99853.88;2934237;80;21015;-86
2022/09/11 04:04:33;;;;;;;4.65;3.33;;;;;;;16.45;100.00;99855.70;2942172;78;21573;-86
2022/09/11 04:08:34;;;;;;;6.55;4.28;;;;;;;16.51;100.00;99850.14;2941139;79;21015;-86
2022/09/11 04:12:36;;;;;;;4.50;3.87;;;;;;;16.57;100.00;99852.11;2946940;79;21019;-86
2022/09/11 04:16:37;;;;;;;4.72;4.28;;;;;;;16.58;100.00;99848.42;2925443;80;21019;-86
2022/09/11 04:20:39;;;;;;;5.33;4.30;;;;;;;16.63;100.00;99850.58;2958596;79;21023;-86
2022/09/11 04:24:40;;;;;;;5.60;4.72;;;;;;;16.63;100.00;99846.55;2953161;79;20972;-86
2022/09/11 04:28:42;;;;;;;6.83;3.85;;;;;;;16.64;100.00;99842.33;2949175;80;21090;-86
2022/09/11 04:32:45;;;;;;;5.78;4.45;;;;;;;16.62;100.00;99848.39;2942871;80;21073;-87
2022/09/11 04:36:46;;;;;;;4.62;3.95;;;;;;;16.51;100.00;99842.91;2919507;80;21078;-86
2022/09/11 04:40:48;;;;;;;6.70;4.87;;;;;;;16.45;100.00;99848.14;2952195;80;21101;-86
2022/09/11 04:44:50;;;;;;;3.95;3.50;;;;;;;16.15;100.00;99842.58;2954796;80;21977;-86
2022/09/11 04:48:54;;;;;;;7.90;5.33;;;;;;;15.92;100.00;99844.66;2959470;80;21075;-86
2022/09/11 04:52:57;;;;;;;5.60;3.85;;;;;;;15.80;100.00;99850.34;2954664;80;21074;-86
2022/09/11 04:57:00;;;;;;;5.92;4.12;;;;;;;15.77;100.00;99852.03;2955290;79;20964;-86
2022/09/11 05:01:14;;;;;;;6.30;5.70;;;;;;;15.80;100.00;99857.53;2927986;79;21006;-86
2022/09/11 05:05:15;;;;;;;5.15;4.65;;;;;;;15.82;100.00;99856.86;2935576;78;21042;-86
2022/09/11 05:09:17;;;;;;;7.75;4.95;;;;;;;15.73;100.00;99857.89;2950839;79;21061;-85
2022/09/11 05:13:19;;;;;;;7.85;5.75;;;;;;;15.71;100.00;99864.75;2956348;79;21010;-85
2022/09/11 05:17:20;;;;;;;7.03;6.28;;;;;;;15.81;100.00;99857.38;2879912;80;20966;-86
2022/09/11 05:21:24;;;;;;;6.95;6.33;;;;;;;15.91;100.00;99862.58;2877403;80;21337;-86
2022/09/11 05:25:30;;;;;;;7.28;5.42;;;;;;;15.79;100.00;99863.42;2951769;80;21058;-86
2022/09/11 05:29:32;;;;;;;9.80;5.60;;;;;;;15.68;100.00;99873.99;2948166;79;21058;-85
2022/09/11 05:33:33;;;;;;;5.85;5.12;;;;;;;15.72;100.00;99879.83;2894546;80;20994;-86
2022/09/11 05:37:34;;;;;;;8.73;5.45;;;;;;;15.78;100.00;99880.52;2947365;79;21105;-86
2022/09/11 05:41:35;;;;;;;5.45;4.55;;;;;;;15.88;100.00;99887.53;2939143;78;21018;-86
2022/09/11 05:45:36;;;;;;;8.63;6.45;;;;;;;15.98;100.00;99878.84;2896423;80;21073;-87
2022/09/11 05:49:38;;;;;;;7.62;4.90;;;;;;;16.02;100.00;99880.68;2940716;79;20999;-85
2022/09/11 05:53:40;;;;;;;5.33;4.45;;;;;;;16.12;100.00;99872.77;2949303;79;21383;-86
2022/09/11 05:57:41;;;;;;;8.20;5.37;;;;;;;16.21;100.00;99876.75;2965801;79;20999;-86
2022/09/11 06:01:42;;;;;;;8.48;5.05;;;;;;;16.20;100.00;99881.79;2952550;78;21046;-86
2022/09/11 06:05:44;;;;;;;7.78;5.47;;;;;;;16.31;100.00;99892.16;2947933;79;21015;-86
2022/09/11 06:09:45;;;;;;;7.95;4.65;;;;;;;16.45;100.00;99888.41;2939005;80;21086;-86
2022/09/11 06:13:47;;;;;;;7.55;5.50;;;;;;;16.59;100.00;99894.39;2963065;79;20998;-86
2022/09/11 06:17:49;;;;;;;8.65;4.67;;;;;;;16.65;100.00;99892.34;2951003;79;21022;-86
2022/09/11 06:21:50;;;;;;;5.12;4.62;;;;;;;16.54;100.00;99898.94;2943548;79;21517;-86
2022/09/11 06:25:53;;;;;;;6.40;5.28;;;;;;;16.56;100.00;99902.27;2943272;78;20991;-86
2022/09/11 06:29:54;;;;;;;4.70;3.90;;;;;;;16.63;100.00;99902.42;2951802;80;21035;-86
2022/09/11 06:33:57;;;;;;;5.72;4.40;;;;;;;16.52;100.00;99909.02;2962276;78;21027;-86
2022/09/11 06:37:58;;;;;;;6.05;5.22;;;;;;;16.55;100.00;99910.52;2945348;80;21007;-86
2022/09/11 06:42:01;;;;;;;5.33;4.80;;;;;;;16.44;100.00;99909.05;2958077;79;21023;-86
2022/09/11 06:46:18;;;;;;;7.22;5.05;;;;;;;16.49;100.00;99908.02;2950542;78;21027;-86
2022/09/11 06:50:22;;;;;;;8.73;6.72;;;;;;;16.38;100.00;99911.92;2929655;79;21022;-86
2022/09/11 06:54:23;;;;;;;5.37;4.75;;;;;;;16.33;100.00;99918.33;2941732;79;20999;-86
2022/09/11 06:58:24;;;;;;;5.95;5.37;;;;;;;16.34;100.00;99916.45;2963223;79;21047;-86
2022/09/11 07:02:25;;;;;;;7.50;6.80;;;;;;;16.40;100.00;99913.92;2952183;78;21003;-86
2022/09/11 07:06:29;;;;;;;7.97;6.92;;;;;;;16.41;100.00;99923.65;2893461;80;21578;-86
2022/09/11 07:10:32;;;;;;;9.05;7.83;;;;;;;16.52;100.00;99927.80;2959408;79;21558;-85
2022/09/11 07:14:33;;;;;;;10.20;6.62;;;;;;;16.64;100.00;99920.20;2918689;80;22238;-86
2022/09/11 07:18:41;;;;;;;9.70;7.62;;;;;;;16.67;100.00;99915.00;2935912;79;21007;-86
2022/09/11 07:22:44;;;;;;;7.37;6.55;;;;;;;16.58;100.00;99919.56;2936251;78;21047;-85
2022/09/11 07:26:45;;;;;;;8.80;7.90;;;;;;;16.54;100.00;99922.27;2943500;79;21027;-85
2022/09/11 07:30:48;;;;;;;9.35;7.17;;;;;;;16.61;100.00;99917.87;2843953;79;20987;-85
2022/09/11 07:34:49;;;;;;;8.70;7.47;;;;;;;16.63;100.00;99922.56;2947032;78;21566;-85
2022/09/11 07:38:51;;;;;;;9.28;8.10;;;;;;;16.75;100.00;99929.72;2940878;80;21007;-85
2022/09/11 07:42:53;;;;;;;9.18;8.35;;;;;;;16.77;100.00;99928.22;2939951;78;21514;-85
2022/09/11 07:46:54;;;;;;;8.08;7.28;;;;;;;16.81;100.00;99940.27;2928832;78;21042;-85
2022/09/11 07:51:01;;;;;;;9.25;7.10;;;;;;;16.91;100.00;99943.59;2937772;78;20998;-85
2022/09/11 07:55:03;;;;;;;12.65;8.98;;;;;;;16.90;100.00;99947.30;2944325;78;21026;-85
2022/09/11 07:59:08;;;;;;;13.62;7.67;;;;;;;16.87;100.00;99947.63;2930942;80;20979;-85
2022/09/11 08:03:09;;;;;;;13.60;7.83;;;;;;;16.90;100.00;99951.81;2933413;78;21014;-85
2022/09/11 08:07:10;;;;;;;7.50;6.75;;;;;;;16.89;100.00;99955.00;2923161;80;20983;-85
2022/09/11 08:11:16;;;;;;;7.55;6.75;;;;;;;16.88;100.00;99954.66;2954521;78;21019;-85
2022/09/11 08:15:20;;;;;;;6.73;6.13;;;;;;;16.90;100.00;99958.05;2949548;79;20963;-85
2022/09/11 08:19:22;;;;;;;7.55;6.80;;;;;;;16.96;100.00;99964.54;2959822;79;21482;-85
2022/09/11 08:23:23;;;;;;;6.75;6.08;;;;;;;17.25;100.00;99961.21;2960610;80;20975;-85
2022/09/11 08:27:25;;;;;;;7.28;6.58;;;;;;;17.34;100.00;99967.90;2908043;80;21028;-87
2022/09/11 08:31:27;;;;;;;7.45;6.67;;;;;;;17.46;100.00;99966.98;2897033;80;21069;-87
2022/09/11 08:35:28;;;;;;;8.48;6.53;;;;;;;17.55;100.00;99967.23;2949783;80;21609;-87
2022/09/11 08:39:30;;;;;;;7.90;6.40;;;;;;;17.53;100.00;99963.39;2924557;80;20987;-87
2022/09/11 08:43:38;;;;;;;10.82;5.53;;;;;;;17.59;100.00;99970.41;2917924;80;20996;-87
2022/09/11 08:47:41;;;;;;;10.53;6.40;;;;;;;17.68;100.00;99974.20;2937687;78;21011;-85
2022/09/11 08:51:46;;;;;;;11.45;5.97;;;;;;;17.90;100.00;99981.08;2939346;79;21021;-86
2022/09/11 08:55:51;;;;;;;7.87;7.05;;;;;;;18.04;100.00;99983.50;2947689;79;20983;-85
2022/09/11 09:00:21;;;;;;;7.28;6.47;;;;;;;18.06;100.00;99991.41;2875741;80;21042;-85
2022/09/11 09:05:19;;;;;;;7.10;6.40;;;;;;;17.98;100.00;99988.25;2954779;78;21023;-87
2022/09/11 09:09:41;;;;;;;9.03;5.83;;;;;;;18.15;100.00;99990.83;2902567;80;21062;-88
2022/09/11 09:14:13;;;;;;;7.83;6.87;;;;;;;18.34;100.00;99984.91;2959539;80;21446;-87
2022/09/11 09:18:38;;;;;;;7.25;6.50;;;;;;;18.37;100.00;99994.45;2947709;78;21038;-88
2022/09/11 09:22:59;;;;;;;6.78;6.17;;;;;;;18.41;100.00;99992.56;2944059;78;21050;-86
2022/09/11 09:27:04;;;;;;;7.42;6.72;;;;;;;18.37;100.00;99992.61;2948323;80;21035;-87
2022/09/11 09:31:09;;;;;;;8.68;6.12;;;;;;;18.39;100.00;100003.21;2930133;80;21078;-87
2022/09/11 09:35:15;;;;;;;9.07;7.53;;;;;;;18.30;100.00;100006.98;2935433;79;20983;-86
2022/09/11 09:39:18;;;;;;;6.75;6.03;;;;;;;18.16;100.00;100009.47;2951561;78;21003;-89
2022/09/11 09:43:25;;;;;;;6.75;5.03;;;;;;;18.13;100.00;100012.03;2941349;78;21396;-89
2022/09/11 09:47:28;;;;;;;8.48;6.28;;;;;;;18.20;100.00;100012.14;2941361;78;21058;-91
2022/09/11 09:51:29;;;;;;;5.97;5.45;;;;;;;18.30;100.00;100000.27;2937975;78;21046;-90
2022/09/11 09:55:34;;;;;;;6.05;5.47;;;;;;;18.37;100.00;100005.22;2927161;80;21035;-90
2022/09/11 10:00:10;;;;;;;5.92;5.28;;;;;;;18.49;100.00;100009.67;2924337;80;21050;-91
2022/09/11 10:04:30;;;;;;;6.08;5.00;;;;;;;18.50;100.00;100000.05;2883880;80;21048;-89
2022/09/11 10:08:35;;;;;;;4.33;3.98;;;;;;;18.60;100.00;100003.81;2871567;81;21014;-89
2022/09/11 10:12:42;;;;;;;4.00;3.65;;;;;;;18.67;100.00;100007.95;2862046;81;20973;-94
2022/09/11 10:16:49;;;;;;;4.60;4.20;;;;;;;18.58;100.00;100004.52;2859538;82;21746;-94
2022/09/11 10:20:50;;;;;;;4.10;3.70;;;;;;;18.63;100.00;100008.00;2858062;82;21043;-93
2022/09/11 10:25:06;;;;;;;4.12;3.60;;;;;;;18.84;100.00;100009.44;2865759;81;21600;-93
2022/09/11 10:29:23;;;;;;;5.10;4.60;;;;;;;19.03;100.00;100010.41;2871637;81;20998;-94
2022/09/11 10:33:34;;;;;;;4.25;3.85;;;;;;;19.33;100.00;100016.57;2876989;82;21549;-94
2022/09/11 10:37:37;;;;;;;5.35;4.62;;;;;;;19.44;100.00;100019.28;2863639;81;21047;-93
2022/09/11 10:41:46;;;;;;;4.47;4.08;;;;;;;19.22;100.00;100011.69;2855919;81;21018;-93
2022/09/11 10:46:08;;;;;;;5.35;4.85;;;;;;;19.00;100.00;100023.77;2855062;82;21883;-94
2022/09/11 10:50:20;;;;;;;5.00;4.58;;;;;;;18.87;100.00;100016.81;2868031;82;21021;-93
2022/09/11 10:54:50;;;;;;;6.40;5.83;;;;;;;18.57;100.00;100023.04;2848780;82;21001;-92
2022/09/11 10:58:56;;;;;;;7.08;5.58;;;;;;;18.47;100.00;100025.16;2872514;81;21022;-91
2022/09/11 11:03:17;;;;;;;8.05;5.20;;;;;;;18.15;100.00;100032.55;2891197;81;20998;-92
2022/09/11 11:07:46;;;;;;;4.55;4.15;;;;;;;18.23;100.00;100037.84;2839835;82;21053;-92
2022/09/11 11:12:02;;;;;;;5.20;4.78;;;;;;;18.27;100.00;100035.95;2866306;82;21012;-93
2022/09/11 11:16:15;;;;;;;5.92;4.10;;;;;;;18.46;100.00;100034.25;2848526;81;20992;-93
2022/09/11 11:20:40;;;;;;;4.55;4.15;;;;;;;18.70;100.00;100032.67;2876445;82;21068;-93
2022/09/11 11:25:16;;;;;;;5.67;4.62;;;;;;;18.95;100.00;100035.07;2865673;81;21084;-93
2022/09/11 11:29:41;;;;;;;;;;;;;;;19.15;100.00;100029.12;2863155;81;21095;-94
2022/09/11 11:34:16;;;;;;;5.40;4.25;;;;;;;18.98;100.00;100048.20;2851908;81;20418;-93
2022/09/11 11:38:23;;;;;;;6.77;5.13;;;;;;;18.79;100.00;100043.34;2883544;81;21867;-93
2022/09/11 11:42:42;;;;;;;8.13;4.85;;;;;;;18.92;100.00;100054.81;2878319;81;21040;-92
2022/09/11 11:46:48;;;;;;;9.55;6.22;;;;;;;18.90;100.00;100049.63;2871901;81;21024;-93
2022/09/11 11:50:54;;;;;;;8.05;7.25;;;;;;;18.63;100.00;100049.23;2873072;82;21651;-93
2022/09/11 11:55:19;;;;;;;7.55;6.05;;;;;;;18.57;100.00;100047.28;2886927;82;20964;-95
2022/09/11 11:59:38;;;;;;;9.18;7.40;;;;;;;18.21;100.00;100060.07;2870254;80;21129;-94
2022/09/11 12:03:45;;;;;;;8.08;6.53;;;;;;;18.06;100.00;100054.66;2903094;80;20994;-93
2022/09/11 12:07:47;;;;;;;8.65;6.95;;;;;;;17.93;100.00;100047.16;2907952;80;21079;-91
2022/09/11 12:11:52;;;;;;;7.05;6.22;;;;;;;17.82;100.00;100055.14;2863711;82;21038;-93
2022/09/11 12:16:27;;;;;;;8.03;6.80;;;;;;;17.55;100.00;100062.20;2898547;81;21020;-93
2022/09/11 12:20:39;;;;;;;11.27;8.73;;;;;;;17.60;100.00;100076.96;2906302;80;21407;-93
2022/09/11 12:24:53;;;;;;;12.60;9.90;;;;;;;17.56;100.00;100081.35;2907642;81;21047;-94
2022/09/11 12:29:19;;;;;;;12.63;10.08;;;;;;;17.60;100.00;100084.53;2872945;82;21123;-93
2022/09/11 12:33:46;;;;;;;13.50;8.55;;;;;;;17.69;100.00;100089.36;2867622;82;21596;-92
2022/09/11 12:38:13;;;;;;;8.48;7.58;;;;;;;17.74;100.00;100084.28;2906011;77;21611;-93
2022/09/11 12:42:26;;;;;;;9.85;7.12;;;;;;;17.82;100.00;100082.87;2912107;81;21004;-92
2022/09/11 12:46:33;;;;;;;6.12;5.53;;;;;;;17.85;100.00;100091.10;2850033;83;21026;-93
2022/09/11 12:50:36;;;;;;;7.12;5.20;;;;;;;17.82;100.00;100080.17;2880935;82;21885;-93
2022/09/11 12:54:41;;;;;;;10.38;6.12;;;;;;;17.80;100.00;100068.77;2860514;82;21006;-94
2022/09/11 12:58:50;;;;;;;8.00;6.43;;;;;;;17.78;100.00;100072.63;2871622;81;21044;-94
2022/09/11 13:02:55;;;;;;;11.22;8.90;;;;;;;17.86;100.00;100086.05;2904080;80;21003;-93
2022/09/11 13:07:06;;;;;;;11.18;8.43;;;;;;;18.06;100.00;100081.56;2865747;82;20991;-93
2022/09/11 13:11:45;;;;;;;14.03;8.93;;;;;;;18.15;100.00;100087.20;2886453;80;21579;-93
2022/09/11 13:15:46;;;;;;;11.97;8.18;;;;;;;18.36;100.00;100085.67;2903200;80;21087;-95
2022/09/11 13:19:49;;;;;;;12.75;9.40;;;;;;;18.44;100.00;100092.84;2882821;80;21060;-93
2022/09/11 13:23:51;;;;;;;10.23;8.38;;;;;;;18.34;100.00;100083.68;2906627;80;21020;-94
2022/09/11 13:27:57;;;;;;;13.40;8.60;;;;;;;18.20;100.00;100089.36;2895774;81;21407;-94
2022/09/11 13:32:10;;;;;;;12.65;9.30;;;;;;;18.38;100.00;100092.56;2866082;82;21110;-94
2022/09/11 13:36:12;;;;;;;6.90;6.15;;;;;;;18.30;100.00;100083.23;2906709;80;21587;-93
2022/09/11 13:40:27;;;;;;;9.73;7.05;;;;;;;18.44;100.00;100087.46;2883431;80;21025;-93
2022/09/11 13:44:45;;;;;;;6.63;5.93;;;;;;;18.37;100.00;100080.13;2841815;81;21014;-93
2022/09/11 13:49:01;;;;;;;13.32;7.40;;;;;;;18.47;100.00;100080.36;2882230;80;21201;-95
2022/09/11 13:53:02;;;;;;;9.80;7.50;;;;;;;18.61;100.00;100079.55;2831313;82;21038;-92
2022/09/11 13:57:23;;;;;;;12.80;9.85;;;;;;;18.87;100.00;100086.88;2864754;81;21033;-92
2022/09/11 14:01:27;;;;;;;10.60;8.78;;;;;;;18.94;100.00;100087.80;2855099;81;21102;-95
2022/09/11 14:05:31;;;;;;;9.15;7.40;;;;;;;19.19;100.00;100092.95;2869899;82;21021;-94
2022/09/11 14:09:32;;;;;;;11.80;10.00;;;;;;;19.59;100.00;100088.55;2871279;81;21505;-95
2022/09/11 14:13:51;;;;;;;9.93;8.00;;;;;;;19.62;98.02;100086.80;2876434;82;21045;-94
2022/09/11 14:17:53;;;;;;;9.10;7.55;;;;;;;19.43;99.23;100095.83;2880621;81;20989;-92
2022/09/11 14:21:55;;;;;;;8.25;7.15;;;;;;;19.33;99.95;100089.91;2877613;82;21053;-93
2022/09/11 14:26:33;;;;;;;13.10;10.03;;;;;;;19.34;99.50;100089.70;2867099;80;21027;-94
2022/09/11 14:30:36;;;;;;;12.78;8.08;;;;;;;19.47;100.00;100079.61;2876416;81;21037;-93
2022/09/11 14:34:38;;;;;;;13.43;9.88;;;;;;;19.50;99.73;100085.97;2852657;82;21667;-95
2022/09/11 14:38:39;;;;;;;11.35;8.45;;;;;;;19.53;100.00;100087.44;2835618;82;20998;-93
2022/09/11 14:42:42;;;;;;;14.07;8.88;;;;;;;19.43;98.89;100078.83;2870738;80;21537;-94
2022/09/11 14:46:44;;;;;;;14.73;8.90;;;;;;;19.43;98.57;100081.52;2859502;81;21351;-93
2022/09/11 14:50:46;;;;;;;8.88;7.25;;;;;;;19.28;97.87;100085.59;2866865;81;21044;-89
2022/09/11 14:54:48;;;;;;;14.38;8.03;;;;;;;19.25;99.36;100088.97;2903876;80;21043;-92
2022/09/11 14:58:50;;;;;;;14.33;8.48;;;;;;;19.25;99.18;100085.45;2852333;81;21046;-94
2022/09/11 15:02:51;;;;;;;10.70;7.25;;;;;;;19.10;98.73;100087.64;2895577;81;21060;-94
2022/09/11 15:06:54;;;;;;;11.43;9.40;;;;;;;19.11;98.94;100087.14;2903477;80;21044;-92
2022/09/11 15:10:57;;;;;;;7.58;5.75;;;;;;;19.11;98.23;100088.49;2825445;83;20999;-94
2022/09/11 15:14:58;;;;;;;7.25;6.17;;;;;;;19.05;99.06;100085.17;2911546;80;21030;-90
2022/09/11 15:19:00;;;;;;;8.95;6.85;;;;;;;19.12;96.89;100082.08;2883806;81;20969;-93
2022/09/11 15:23:02;;;;;;;9.85;7.47;;;;;;;19.00;97.94;100094.34;2801958;83;21030;-94
2022/09/11 15:27:03;;;;;;;7.45;5.00;;;;;;;18.96;99.25;100093.34;2888515;80;21028;-92
2022/09/11 15:31:05;;;;;;;8.98;5.92;;;;;;;18.98;98.88;100089.13;2894390;80;21637;-94
2022/09/11 15:35:08;;;;;;;8.35;5.95;;;;;;;18.97;98.30;100093.66;2902673;80;21022;-95
2022/09/11 15:39:15;;;;;;;8.93;6.92;;;;;;;18.84;97.78;100093.45;2904892;80;21042;-93
2022/09/11 15:43:17;;;;;;;10.98;7.75;;;;;;;18.78;98.78;100087.47;2881355;81;21071;-93
2022/09/11 15:47:19;;;;;;;9.08;7.50;;;;;;;18.84;99.38;100101.55;2913338;80;21413;-92
2022/09/11 15:51:26;;;;;;;10.00;7.33;;;;;;;18.72;100.00;100099.81;2858120;81;21108;-93
2022/09/11 15:55:29;;;;;;;9.30;7.37;;;;;;;18.73;100.00;100101.48;2859336;81;21029;-94
2022/09/11 15:59:28;;;;;;;10.45;8.48;;;;;;;18.75;100.00;100103.48;2879154;81;21124;-93
2022/09/11 16:03:31;;;;;;;8.55;6.97;;;;;;;18.76;99.32;100105.16;2882574;81;21603;-93
2022/09/11 16:07:32;;;;;;;10.72;6.92;;;;;;;18.55;100.00;100114.78;2811803;81;21119;-90
2022/09/11 16:11:35;;;;;;;8.33;6.97;;;;;;;18.56;100.00;100111.59;2895116;81;21052;-92
2022/09/11 16:15:36;;;;;;;10.58;7.58;;;;;;;18.47;100.00;100108.14;2870280;81;21481;-93
2022/09/11 16:19:38;;;;;;;10.35;9.25;;;;;;;18.47;100.00;100115.37;2865813;82;21095;-94
2022/09/11 16:23:42;;;;;;;12.40;9.50;;;;;;;18.41;100.00;100116.43;2866600;82;21568;-92
2022/09/11 16:27:45;;;;;;;11.70;7.37;;;;;;;18.45;100.00;100116.06;2868724;82;21604;-91
2022/09/11 16:31:46;;;;;;;11.85;9.43;;;;;;;18.32;100.00;100125.61;2893262;81;21064;-94
2022/09/11 16:36:04;;;;;;;9.10;7.60;;;;;;;18.34;100.00;100120.88;2896786;82;21025;-94
2022/09/11 16:40:08;;;;;;;14.35;9.65;;;;;;;18.28;100.00;100116.23;2882535;81;21596;-94
2022/09/11 16:44:13;;;;;;;11.08;8.53;;;;;;;18.28;100.00;100116.23;2863256;82;21072;-94
2022/09/11 16:48:16;;;;;;;10.75;7.97;;;;;;;18.37;100.00;100119.16;2874966;82;21607;-92
2022/09/11 16:52:17;;;;;;;10.28;8.60;;;;;;;18.42;100.00;100121.33;2893016;81;21520;-93
2022/09/11 16:56:21;;;;;;;13.75;9.63;;;;;;;18.40;100.00;100120.67;2895639;81;21060;-93
2022/09/11 17:00:23;;;;;;;10.35;8.73;;;;;;;18.35;100.00;100114.48;2898330;81;21123;-94
2022/09/11 17:04:25;;;;;;;12.28;9.70;;;;;;;18.28;100.00;100122.95;2894524;82;21048;-93
2022/09/11 17:08:29;;;;;;;10.58;9.28;;;;;;;18.25;100.00;100125.48;2869441;82;21490;-94
2022/09/11 17:12:31;;;;;;;11.93;10.65;;;;;;;18.21;100.00;100125.53;2865915;82;21493;-93
2022/09/11 17:16:34;;;;;;;9.40;7.60;;;;;;;18.25;100.00;100130.02;2889375;82;21040;-90
2022/09/11 17:20:36;;;;;;;11.97;9.15;;;;;;;18.25;100.00;100129.53;2875367;80;20998;-92
2022/09/11 17:24:38;;;;;;;11.57;9.00;;;;;;;18.19;100.00;100123.53;2886818;82;21025;-92
2022/09/11 17:28:41;;;;;;;9.85;8.50;;;;;;;18.10;100.00;100138.90;2875981;81;21483;-93
2022/09/11 17:32:43;;;;;;;13.40;10.08;;;;;;;18.11;100.00;100138.38;2896021;81;21041;-94
2022/09/11 17:36:44;;;;;;;9.55;8.15;;;;;;;17.95;100.00;100141.47;2867027;81;21632;-93
2022/09/11 17:40:46;;;;;;;10.10;8.70;;;;;;;17.89;100.00;100142.19;2866724;82;21001;-94
2022/09/11 17:44:47;;;;;;;20.37;8.93;;;;;;;17.87;100.00;100137.98;2897564;81;21075;-94
2022/09/11 17:48:49;;;;;;;9.68;8.00;;;;;;;17.69;100.00;100141.81;2886227;81;21027;-94
2022/09/11 17:52:51;;;;;;;12.65;9.68;;;;;;;17.66;100.00;100146.17;2840505;82;21055;-94
2022/09/11 17:56:54;;;;;;;12.75;8.40;;;;;;;17.64;100.00;100141.48;2861480;81;21044;-91
2022/09/11 18:00:59;;;;;;;11.97;10.55;;;;;;;17.67;100.00;100141.13;2844793;81;21036;-92
2022/09/11 18:05:01;;;;;;;11.47;8.73;;;;;;;17.64;100.00;100144.17;2875434;81;21100;-93
2022/09/11 18:09:10;;;;;;;12.82;9.48;;;;;;;17.52;100.00;100151.79;2848989;81;21541;-94
2022/09/11 18:13:12;;;;;;;14.73;10.85;;;;;;;17.51;100.00;100140.21;2843627;82;21055;-92
2022/09/11 18:17:13;;;;;;;8.18;6.42;;;;;;;17.51;100.00;100149.63;2858799;81;21024;-92
2022/09/11 18:21:15;;;;;;;11.25;7.72;;;;;;;17.44;100.00;100151.84;2880876;81;21048;-93
2022/09/11 18:25:18;;;;;;;17.27;9.85;;;;;;;17.37;100.00;100155.72;2865485;82;21044;-93
2022/09/11 18:29:20;;;;;;;11.12;10.00;;;;;;;17.28;100.00;100157.08;2842810;81;21429;-93
2022/09/11 18:33:22;;;;;;;13.53;11.83;;;;;;;17.21;100.00;100157.97;2867924;81;21503;-91
2022/09/11 18:37:23;;;;;;;16.73;12.33;;;;;;;17.12;100.00;100154.47;2890351;80;20987;-91
2022/09/11 18:41:25;;;;;;;13.53;11.30;;;;;;;17.02;100.00;100160.52;2827530;82;21594;-92
2022/09/11 18:45:29;;;;;;;24.50;14.03;;;;;;;16.89;100.00;100167.73;2825344;82;21028;-92
2022/09/11 18:49:30;;;;;;;16.95;12.75;;;;;;;16.81;100.00;100168.09;2857642;81;21095;-92
2022/09/11 18:53:32;;;;;;;20.17;12.68;;;;;;;16.81;100.00;100169.92;2846207;81;21067;-91
2022/09/11 18:57:33;;;;;;;16.35;11.93;;;;;;;16.88;100.00;100168.23;2857363;82;21021;-90